createdAt,value
2022-10-28T00:00:33.778Z,96.06
2022-10-28T00:03:41.057Z,96.74
2022-10-28T00:06:42.996Z,96.06
2022-10-28T00:09:44.835Z,96.17
2022-10-28T00:12:46.727Z,96.58
2022-10-28T00:15:48.577Z,96.58
2022-10-28T00:18:52.660Z,96.75
2022-10-28T00:21:54.560Z,96.78
2022-10-28T00:24:56.395Z,96.67
2022-10-28T00:27:58.313Z,96.65
2022-10-28T00:31:05.825Z,96.53
2022-10-28T00:34:11.729Z,96.13
2022-10-28T00:37:13.607Z,95.95
2022-10-28T00:40:15.617Z,96.32
2022-10-28T00:43:17.599Z,96.29
2022-10-28T00:46:40.988Z,96.10
2022-10-28T00:49:45.793Z,95.68
2022-10-28T00:52:52.755Z,95.56
2022-10-28T00:55:57.018Z,95.62
2022-10-28T00:59:02.686Z,95.51
2022-10-28T01:02:06.434Z,95.46
2022-10-28T01:05:08.956Z,95.03
2022-10-28T01:08:11.006Z,94.75
2022-10-28T01:11:43.821Z,94.54
2022-10-28T01:15:13.318Z,94.44
2022-10-28T01:18:21.128Z,94.31
2022-10-28T01:21:26.084Z,94.18
2022-10-28T01:24:55.460Z,94.03
2022-10-28T01:28:11.517Z,94.08
2022-10-28T01:31:40.334Z,93.93
2022-10-28T01:35:08.095Z,93.92
2022-10-28T01:38:21.782Z,93.82
2022-10-28T01:41:32.938Z,93.60
2022-10-28T01:44:45.928Z,93.56
2022-10-28T01:47:48.685Z,93.62
2022-10-28T01:51:13.780Z,93.61
2022-10-28T01:54:20.403Z,93.59
2022-10-28T01:57:24.298Z,93.45
2022-10-28T02:00:26.630Z,93.39
2022-10-28T02:03:28.650Z,93.32
2022-10-28T02:06:33.277Z,93.40
2022-10-28T02:09:51.774Z,93.29
2022-10-28T02:12:56.503Z,93.33
2022-10-28T02:16:05.056Z,93.34
2022-10-28T02:19:30.680Z,93.15
2022-10-28T02:22:44.939Z,92.91
2022-10-28T02:25:52.345Z,93.08
2022-10-28T02:28:57.136Z,93.24
2022-10-28T02:32:05.827Z,93.00
2022-10-28T02:35:14.803Z,92.99
2022-10-28T02:38:30.578Z,92.87
2022-10-28T02:41:51.083Z,92.94
2022-10-28T02:45:05.170Z,93.15
2022-10-28T02:48:18.986Z,93.14
2022-10-28T02:51:29.741Z,93.21
2022-10-28T02:54:35.010Z,92.90
2022-10-28T02:57:41.662Z,93.11
2022-10-28T03:00:45.297Z,93.13
2022-10-28T03:03:47.238Z,92.98
2022-10-28T03:06:49.138Z,93.26
2022-10-28T03:09:51.459Z,93.37
2022-10-28T03:12:53.373Z,93.44
2022-10-28T03:15:55.359Z,94.35
2022-10-28T03:18:57.368Z,94.21
2022-10-28T03:21:59.308Z,94.14
2022-10-28T03:25:01.214Z,94.26
2022-10-28T03:28:03.112Z,94.17
2022-10-28T03:31:05.669Z,94.06
2022-10-28T03:34:07.560Z,94.16
2022-10-28T03:37:10.013Z,94.17
2022-10-28T03:40:13.101Z,94.21
2022-10-28T03:43:15.393Z,94.04
2022-10-28T03:46:17.232Z,94.01
2022-10-28T03:49:19.141Z,93.96
2022-10-28T03:52:21.060Z,93.91
2022-10-28T03:55:24.040Z,93.81
2022-10-28T03:58:26.263Z,93.70
2022-10-28T04:01:28.363Z,93.97
2022-10-28T04:04:30.811Z,94.00
2022-10-28T04:07:32.908Z,94.00
2022-10-28T04:10:35.358Z,94.16
2022-10-28T04:13:37.219Z,94.12
2022-10-28T04:16:39.091Z,94.54
2022-10-28T04:19:41.027Z,94.25
2022-10-28T04:22:42.950Z,94.48
2022-10-28T04:25:45.317Z,94.58
2022-10-28T04:28:47.119Z,94.67
2022-10-28T04:31:52.139Z,94.51
2022-10-28T04:34:54.377Z,94.47
2022-10-28T04:37:56.524Z,94.56
2022-10-28T04:40:58.659Z,94.62
2022-10-28T04:44:00.500Z,94.51
2022-10-28T04:47:02.428Z,94.33
2022-10-28T04:50:05.030Z,94.35
2022-10-28T04:53:06.870Z,94.22
2022-10-28T04:56:10.215Z,94.71
2022-10-28T04:59:12.111Z,94.50
2022-10-28T05:02:13.981Z,94.46
2022-10-28T05:08:19.087Z,94.40
2022-10-28T05:11:20.949Z,94.51
2022-10-28T05:14:22.843Z,94.36
2022-10-28T05:17:24.740Z,94.31
2022-10-28T05:20:26.592Z,94.65
2022-10-28T05:23:30.817Z,94.59
2022-10-28T05:26:32.908Z,94.49
2022-10-28T05:29:34.725Z,94.45
2022-10-28T05:32:36.704Z,94.20
2022-10-28T05:35:39.830Z,94.31
2022-10-28T05:38:45.482Z,94.07
2022-10-28T05:41:47.378Z,94.08
2022-10-28T05:44:49.278Z,94.15
2022-10-28T05:47:51.460Z,93.97
2022-10-28T05:50:53.504Z,93.94
2022-10-28T05:53:55.424Z,93.63
2022-10-28T05:56:57.378Z,93.46
2022-10-28T05:59:59.203Z,93.40
2022-10-28T06:03:09.371Z,93.53
2022-10-28T06:06:11.221Z,93.51
2022-10-28T06:09:13.186Z,93.10
2022-10-28T06:12:13.535Z,93.02
2022-10-28T06:15:15.506Z,93.04
2022-10-28T06:18:18.966Z,93.24
2022-10-28T06:21:20.961Z,92.90
2022-10-28T06:24:22.896Z,93.14
2022-10-28T06:27:24.861Z,93.08
2022-10-28T06:30:27.308Z,92.98
2022-10-28T06:33:29.545Z,92.83
2022-10-28T06:36:31.561Z,92.92
2022-10-28T06:39:33.460Z,92.95
2022-10-28T06:42:35.455Z,92.78
2022-10-28T06:45:37.291Z,92.99
2022-10-28T06:48:40.667Z,93.16
2022-10-28T06:51:42.633Z,93.32
2022-10-28T06:54:44.543Z,92.94
2022-10-28T06:57:46.588Z,92.54
2022-10-28T07:00:48.872Z,92.51
2022-10-28T07:03:52.211Z,92.39
2022-10-28T07:06:58.243Z,92.50
2022-10-28T07:10:00.172Z,92.32
2022-10-28T07:13:02.194Z,92.27
2022-10-28T07:16:05.316Z,92.20
2022-10-28T07:19:07.207Z,92.06
2022-10-28T07:22:09.041Z,91.69
2022-10-28T07:25:10.944Z,91.40
2022-10-28T07:28:12.945Z,91.06
2022-10-28T07:31:15.611Z,90.86
2022-10-28T07:34:17.535Z,90.89
2022-10-28T07:37:19.426Z,90.39
2022-10-28T07:40:22.258Z,90.20
2022-10-28T07:43:24.004Z,89.42
2022-10-28T07:46:25.985Z,89.50
2022-10-28T07:49:27.846Z,89.17
2022-10-28T07:52:29.835Z,89.29
2022-10-28T07:55:32.148Z,88.88
2022-10-28T07:58:34.139Z,88.63
2022-10-28T08:01:36.216Z,88.60
2022-10-28T08:04:38.339Z,88.39
2022-10-28T08:07:40.255Z,88.32
2022-10-28T08:10:42.176Z,88.06
2022-10-28T08:13:44.042Z,87.05
2022-10-28T08:16:46.123Z,87.06
2022-10-28T08:19:48.043Z,86.46
2022-10-28T08:22:50.989Z,86.42
2022-10-28T08:25:53.553Z,86.71
2022-10-28T08:28:55.472Z,86.29
2022-10-28T08:31:58.002Z,86.03
2022-10-28T08:34:59.991Z,85.59
2022-10-28T08:38:03.012Z,85.35
2022-10-28T08:41:26.471Z,84.98
2022-10-28T08:44:49.959Z,85.48
2022-10-28T08:48:20.344Z,85.21
2022-10-28T08:51:33.862Z,85.58
2022-10-28T08:54:47.304Z,85.81
2022-10-28T08:57:56.095Z,85.50
2022-10-28T09:01:02.381Z,85.67
2022-10-28T09:04:12.216Z,85.40
2022-10-28T09:07:19.100Z,85.33
2022-10-28T09:10:49.337Z,85.30
2022-10-28T09:14:12.980Z,84.90
2022-10-28T09:17:42.625Z,85.19
2022-10-28T09:20:50.785Z,85.08
2022-10-28T09:23:58.690Z,84.95
2022-10-28T09:27:09.703Z,84.93
2022-10-28T09:30:17.542Z,84.38
2022-10-28T09:33:25.430Z,84.29
2022-10-28T09:36:56.516Z,83.53
2022-10-28T09:40:21.925Z,82.89
2022-10-28T09:43:47.766Z,83.06
2022-10-28T09:46:53.928Z,82.27
2022-10-28T09:49:59.206Z,82.03
2022-10-28T09:53:03.878Z,81.89
2022-10-28T09:59:14.278Z,80.99
2022-10-28T10:02:27.336Z,80.80
2022-10-28T10:05:32.917Z,80.65
2022-10-28T10:08:36.419Z,80.75
2022-10-28T10:11:45.100Z,80.26
2022-10-28T10:14:50.626Z,80.21
2022-10-28T10:17:53.537Z,80.26
2022-10-28T10:21:00.826Z,80.77
2022-10-28T10:24:02.740Z,81.11
2022-10-28T10:27:10.505Z,81.15
2022-10-28T10:30:18.884Z,81.08
2022-10-28T10:33:24.593Z,81.03
2022-10-28T10:36:29.176Z,81.09
2022-10-28T10:39:37.706Z,80.61
2022-10-28T10:42:46.781Z,80.66
2022-10-28T10:46:00.351Z,80.33
2022-10-28T10:49:22.516Z,80.17
2022-10-28T10:52:26.228Z,81.00
2022-10-28T10:55:41.404Z,81.20
2022-10-28T10:58:54.626Z,81.45
2022-10-28T11:01:58.804Z,81.84
2022-10-28T11:05:07.758Z,81.58
2022-10-28T11:08:26.364Z,81.91
2022-10-28T11:11:38.445Z,81.75
2022-10-28T11:14:55.484Z,82.55
2022-10-28T11:18:02.092Z,82.60
2022-10-28T11:21:13.329Z,82.96
2022-10-28T11:24:52.993Z,83.12
2022-10-28T11:28:21.311Z,83.64
2022-10-28T11:31:52.074Z,83.42
2022-10-28T11:35:15.526Z,83.88
2022-10-28T11:39:17.103Z,84.11
2022-10-28T11:42:46.583Z,83.80
2022-10-28T11:46:10.513Z,83.55
2022-10-28T11:52:53.983Z,84.08
2022-10-28T11:56:08.989Z,83.89
2022-10-28T11:59:48.406Z,83.59
2022-10-28T12:03:02.899Z,83.42
2022-10-28T12:06:10.529Z,83.28
2022-10-28T12:09:21.333Z,83.22
2022-10-28T12:12:32.097Z,82.97
2022-10-28T12:15:49.160Z,82.58
2022-10-28T12:18:57.289Z,83.01
2022-10-28T12:22:14.907Z,82.64
2022-10-28T12:25:25.590Z,82.27
2022-10-28T12:28:38.928Z,82.71
2022-10-28T12:31:48.025Z,82.97
2022-10-28T12:35:03.020Z,83.99
2022-10-28T12:38:18.192Z,84.35
2022-10-28T12:41:52.445Z,84.83
2022-10-28T12:44:58.548Z,85.21
2022-10-28T12:48:15.204Z,85.08
2022-10-28T12:51:29.226Z,84.97
2022-10-28T12:54:38.539Z,84.65
2022-10-28T12:57:45.056Z,84.77
2022-10-28T13:00:54.174Z,84.72
2022-10-28T13:03:56.490Z,84.86
2022-10-28T13:07:30.747Z,84.60
2022-10-28T13:11:17.593Z,84.50
2022-10-28T13:14:38.478Z,84.39
2022-10-28T13:18:11.759Z,84.27
2022-10-28T13:21:27.019Z,83.69
2022-10-28T13:24:37.714Z,83.63
2022-10-28T13:27:40.068Z,83.55
2022-10-28T13:30:57.545Z,82.64
2022-10-28T13:34:00.431Z,83.35
2022-10-28T13:37:05.026Z,83.26
2022-10-28T13:40:20.471Z,83.31
2022-10-28T13:43:50.278Z,83.00
2022-10-28T13:47:03.234Z,83.33
2022-10-28T13:50:08.221Z,83.46
2022-10-28T13:53:28.869Z,83.46
2022-10-28T13:56:39.257Z,83.39
2022-10-28T13:59:53.559Z,83.49
2022-10-28T14:02:58.927Z,83.65
2022-10-28T14:06:01.564Z,83.74
2022-10-28T14:09:05.864Z,83.95
2022-10-28T14:12:22.963Z,84.01
2022-10-28T14:15:26.487Z,84.34
2022-10-28T14:18:45.061Z,83.96
2022-10-28T14:21:48.341Z,84.46
2022-10-28T14:24:50.361Z,84.61
2022-10-28T14:27:52.525Z,84.71
2022-10-28T14:31:12.875Z,84.93
2022-10-28T14:34:14.746Z,85.00
2022-10-28T14:37:37.892Z,85.03
2022-10-28T14:41:15.270Z,85.02
2022-10-28T14:44:47.666Z,85.22
2022-10-28T14:48:08.169Z,85.18
2022-10-28T14:51:15.500Z,85.09
2022-10-28T14:54:39.679Z,85.50
2022-10-28T14:57:42.603Z,85.56
2022-10-28T15:00:57.431Z,86.02
2022-10-28T15:04:03.256Z,85.92
2022-10-28T15:07:05.513Z,86.01
2022-10-28T15:10:28.506Z,85.99
2022-10-28T15:13:30.326Z,86.16
2022-10-28T15:16:34.181Z,86.34
2022-10-28T15:19:36.147Z,86.48
2022-10-28T15:22:38.006Z,86.55
2022-10-28T15:25:39.860Z,86.62
2022-10-28T15:28:43.072Z,87.08
2022-10-28T15:32:09.980Z,86.83
2022-10-28T15:35:27.193Z,86.92
2022-10-28T15:38:29.201Z,86.97
2022-10-28T15:41:31.267Z,87.06
2022-10-28T15:44:37.745Z,87.06
2022-10-28T15:47:39.627Z,87.08
2022-10-28T15:50:42.019Z,87.18
2022-10-28T15:53:54.142Z,86.71
2022-10-28T15:56:59.869Z,86.20
2022-10-28T16:00:27.745Z,85.68
2022-10-28T16:03:47.196Z,85.87
2022-10-28T16:06:56.922Z,86.37
2022-10-28T16:09:58.846Z,86.57
2022-10-28T16:13:01.817Z,86.70
2022-10-28T16:16:07.861Z,86.76
2022-10-28T16:19:27.741Z,87.09
2022-10-28T16:22:31.390Z,87.13
2022-10-28T16:25:33.178Z,87.45
2022-10-28T16:28:35.269Z,87.49
2022-10-28T16:31:37.269Z,87.62
2022-10-28T16:34:39.478Z,87.79
2022-10-28T16:37:44.717Z,87.63
2022-10-28T16:40:51.946Z,87.70
2022-10-28T16:43:55.958Z,87.89
2022-10-28T16:46:58.313Z,88.04
2022-10-28T16:50:00.234Z,88.15
2022-10-28T16:53:02.194Z,88.20
2022-10-28T16:56:06.560Z,88.59
2022-10-28T16:59:11.778Z,88.48
2022-10-28T17:02:26.077Z,88.56
2022-10-28T17:05:28.597Z,88.54
2022-10-28T17:08:57.036Z,88.75
2022-10-28T17:11:54.749Z,88.52
2022-10-28T17:14:56.672Z,88.57
2022-10-28T17:17:58.585Z,88.74
2022-10-28T17:21:03.146Z,88.80
2022-10-28T17:24:05.478Z,88.82
2022-10-28T17:27:07.955Z,88.74
2022-10-28T17:30:10.589Z,88.90
2022-10-28T17:33:12.767Z,89.00
2022-10-28T17:36:15.777Z,89.01
2022-10-28T17:39:21.958Z,88.77
2022-10-28T17:42:26.765Z,88.91
2022-10-28T17:45:28.596Z,88.80
2022-10-28T17:48:30.449Z,88.93
2022-10-28T17:51:32.504Z,88.83
2022-10-28T17:54:34.528Z,88.58
2022-10-28T17:57:36.391Z,88.71
2022-10-28T18:00:38.226Z,88.72
2022-10-28T18:03:40.108Z,88.58
2022-10-28T18:06:41.952Z,88.56
2022-10-28T18:09:44.134Z,88.55
2022-10-28T18:12:51.686Z,88.66
2022-10-28T18:15:54.080Z,88.56
2022-10-28T18:18:56.117Z,88.47
2022-10-28T18:21:57.979Z,88.60
2022-10-28T18:24:59.792Z,88.59
2022-10-28T18:28:05.187Z,88.49
2022-10-28T18:31:15.509Z,88.62
2022-10-28T18:34:17.860Z,88.52
2022-10-28T18:37:19.785Z,88.58
2022-10-28T18:40:21.591Z,88.63
2022-10-28T18:43:23.851Z,88.54
2022-10-28T18:46:26.246Z,88.57
2022-10-28T18:49:28.294Z,88.33
2022-10-28T18:52:30.084Z,88.28
2022-10-28T18:55:33.013Z,88.31
2022-10-28T18:58:35.413Z,88.27
2022-10-28T19:01:37.689Z,88.42
2022-10-28T19:04:39.806Z,88.05
2022-10-28T19:07:41.907Z,88.26
2022-10-28T19:10:43.836Z,88.12
2022-10-28T19:13:45.868Z,88.10
2022-10-28T19:16:47.785Z,88.14
2022-10-28T19:19:51.601Z,87.97
2022-10-28T19:23:04.540Z,87.85
2022-10-28T19:26:08.299Z,88.04
2022-10-28T19:29:10.576Z,87.93
2022-10-28T19:32:12.380Z,88.02
2022-10-28T19:35:14.305Z,88.15
2022-10-28T19:38:16.091Z,87.93
2022-10-28T19:41:20.582Z,87.90
2022-10-28T19:44:22.684Z,87.83
2022-10-28T19:47:24.568Z,87.61
2022-10-28T19:50:26.545Z,87.68
2022-10-28T19:53:28.405Z,87.43
2022-10-28T19:56:32.333Z,87.38
2022-10-28T19:59:34.538Z,87.43
2022-10-28T20:02:36.620Z,87.39
2022-10-28T20:05:38.523Z,87.02
2022-10-28T20:08:43.815Z,87.47
2022-10-28T20:11:46.054Z,87.20
2022-10-28T20:14:47.934Z,87.10
2022-10-28T20:17:50.800Z,87.13
2022-10-28T20:20:53.593Z,86.97
2022-10-28T20:23:57.142Z,87.02
2022-10-28T20:26:59.063Z,87.16
2022-10-28T20:30:00.973Z,87.15
2022-10-28T20:33:02.846Z,87.21
2022-10-28T20:36:05.847Z,86.83
2022-10-28T20:39:15.347Z,86.93
2022-10-28T20:42:17.198Z,86.93
2022-10-28T20:45:19.077Z,87.00
2022-10-28T20:48:21.914Z,87.02
2022-10-28T20:51:24.878Z,86.11
2022-10-28T20:54:26.727Z,86.45
2022-10-28T20:57:28.544Z,86.64
2022-10-28T21:00:30.442Z,86.43
2022-10-28T21:03:32.939Z,86.38
2022-10-28T21:06:35.975Z,86.76
2022-10-28T21:09:37.850Z,86.86
2022-10-28T21:12:39.747Z,86.95
2022-10-28T21:15:44.073Z,86.86
2022-10-28T21:18:45.910Z,87.16
2022-10-28T21:21:47.846Z,87.33
2022-10-28T21:24:49.682Z,87.34
2022-10-28T21:27:51.596Z,87.27
2022-10-28T21:31:05.577Z,87.20
2022-10-28T21:34:08.534Z,87.02
2022-10-28T21:37:10.584Z,87.25
2022-10-28T21:40:13.343Z,87.00
2022-10-28T21:43:15.721Z,86.75
2022-10-28T21:46:18.897Z,87.08
2022-10-28T21:49:20.864Z,86.95
2022-10-28T21:52:22.707Z,86.92
2022-10-28T21:55:41.372Z,86.98
2022-10-28T21:58:48.730Z,87.07
2022-10-28T22:01:50.670Z,87.19
2022-10-28T22:04:52.646Z,87.13
2022-10-28T22:07:55.120Z,86.94
2022-10-28T22:11:04.037Z,86.77
2022-10-28T22:14:05.938Z,86.43
2022-10-28T22:17:07.827Z,86.20
2022-10-28T22:20:17.970Z,85.84
2022-10-28T22:23:19.870Z,86.16
2022-10-28T22:26:28.078Z,86.03
2022-10-28T22:29:32.928Z,86.18
2022-10-28T22:32:34.790Z,86.11
2022-10-28T22:35:36.730Z,85.98
2022-10-28T22:38:38.710Z,86.01
2022-10-28T22:41:40.699Z,85.94
2022-10-28T22:44:42.601Z,86.07
2022-10-28T22:47:44.445Z,86.03
2022-10-28T22:50:46.270Z,85.52
2022-10-28T22:53:48.627Z,85.44
2022-10-28T22:56:50.576Z,85.24
2022-10-28T22:59:52.416Z,85.32
2022-10-28T23:02:56.104Z,85.41
2022-10-28T23:05:58.182Z,85.40
2022-10-28T23:09:00.138Z,85.38
2022-10-28T23:12:02.018Z,85.37
2022-10-28T23:15:04.192Z,85.38
2022-10-28T23:18:06.073Z,85.47
2022-10-28T23:21:14.461Z,85.54
2022-10-28T23:24:16.482Z,85.51
2022-10-28T23:27:18.320Z,85.54
2022-10-28T23:30:20.189Z,85.30
2022-10-28T23:33:22.010Z,85.36
2022-10-28T23:36:24.017Z,85.33
2022-10-28T23:39:25.874Z,85.08
2022-10-28T23:42:27.786Z,84.91
2022-10-28T23:45:29.602Z,84.91
2022-10-28T23:48:31.622Z,85.01
2022-10-28T23:51:33.611Z,85.30
2022-10-28T23:54:35.542Z,85.50
2022-10-28T23:57:37.385Z,85.43
